sensor_id;sensor_type;location;lat;lon;timestamp;P1;durP1;ratioP1;P2;durP2;ratioP2
80384;SDS011;69702;44.618;33.604;2023-07-29T00:00:58;11.20;;;7.07;;
80384;SDS011;69702;44.618;33.604;2023-07-29T00:03:26;9.50;;;6.97;;
80384;SDS011;69702;44.618;33.604;2023-07-29T00:05:53;10.38;;;7.47;;
80384;SDS011;69702;44.618;33.604;2023-07-29T00:08:19;11.25;;;7.25;;
80384;SDS011;69702;44.618;33.604;2023-07-29T00:10:45;10.75;;;7.07;;
80384;SDS011;69702;44.618;33.604;2023-07-29T00:13:11;12.23;;;7.60;;
80384;SDS011;69702;44.618;33.604;2023-07-29T00:15:37;13.07;;;6.80;;
80384;SDS011;69702;44.618;33.604;2023-07-29T00:18:03;10.95;;;6.57;;
80384;SDS011;69702;44.618;33.604;2023-07-29T00:20:29;14.60;;;7.72;;
80384;SDS011;69702;44.618;33.604;2023-07-29T00:22:55;13.95;;;7.32;;
80384;SDS011;69702;44.618;33.604;2023-07-29T00:25:23;13.20;;;7.20;;
80384;SDS011;69702;44.618;33.604;2023-07-29T00:27:49;10.57;;;7.10;;
80384;SDS011;69702;44.618;33.604;2023-07-29T00:30:16;11.18;;;7.00;;
80384;SDS011;69702;44.618;33.604;2023-07-29T00:32:42;10.55;;;6.80;;
80384;SDS011;69702;44.618;33.604;2023-07-29T00:35:08;10.65;;;6.65;;
80384;SDS011;69702;44.618;33.604;2023-07-29T00:37:34;10.77;;;8.02;;
80384;SDS011;69702;44.618;33.604;2023-07-29T00:40:19;9.30;;;6.53;;
80384;SDS011;69702;44.618;33.604;2023-07-29T00:42:48;9.13;;;6.40;;
80384;SDS011;69702;44.618;33.604;2023-07-29T00:45:15;11.15;;;6.93;;
80384;SDS011;69702;44.618;33.604;2023-07-29T00:47:42;11.70;;;7.47;;
80384;SDS011;69702;44.618;33.604;2023-07-29T00:50:09;12.00;;;7.25;;
80384;SDS011;69702;44.618;33.604;2023-07-29T00:52:35;9.47;;;7.27;;
80384;SDS011;69702;44.618;33.604;2023-07-29T00:55:01;12.05;;;7.47;;
80384;SDS011;69702;44.618;33.604;2023-07-29T00:57:29;10.68;;;7.85;;
80384;SDS011;69702;44.618;33.604;2023-07-29T00:59:56;11.52;;;7.18;;
80384;SDS011;69702;44.618;33.604;2023-07-29T01:02:22;13.75;;;7.93;;
80384;SDS011;69702;44.618;33.604;2023-07-29T01:04:55;14.77;;;7.70;;
80384;SDS011;69702;44.618;33.604;2023-07-29T01:16:23;12.30;;;7.93;;
80384;SDS011;69702;44.618;33.604;2023-07-29T01:18:54;11.90;;;7.63;;
80384;SDS011;69702;44.618;33.604;2023-07-29T01:21:21;13.45;;;8.70;;
80384;SDS011;69702;44.618;33.604;2023-07-29T01:23:48;13.13;;;8.48;;
80384;SDS011;69702;44.618;33.604;2023-07-29T01:26:18;12.60;;;8.50;;
80384;SDS011;69702;44.618;33.604;2023-07-29T01:28:44;12.68;;;8.60;;
80384;SDS011;69702;44.618;33.604;2023-07-29T01:31:16;13.45;;;8.45;;
80384;SDS011;69702;44.618;33.604;2023-07-29T01:36:51;12.25;;;7.75;;
80384;SDS011;69702;44.618;33.604;2023-07-29T01:39:18;11.82;;;7.50;;
80384;SDS011;69702;44.618;33.604;2023-07-29T01:41:48;11.73;;;7.65;;
80384;SDS011;69702;44.618;33.604;2023-07-29T01:44:14;13.20;;;7.90;;
80384;SDS011;69702;44.618;33.604;2023-07-29T01:46:41;11.93;;;8.02;;
80384;SDS011;69702;44.618;33.604;2023-07-29T01:49:06;12.55;;;7.82;;
80384;SDS011;69702;44.618;33.604;2023-07-29T01:51:32;11.10;;;7.57;;
80384;SDS011;69702;44.618;33.604;2023-07-29T01:53:58;13.50;;;7.17;;
80384;SDS011;69702;44.618;33.604;2023-07-29T01:56:25;12.70;;;7.47;;
80384;SDS011;69702;44.618;33.604;2023-07-29T01:58:54;13.85;;;7.45;;
80384;SDS011;69702;44.618;33.604;2023-07-29T02:01:20;12.63;;;7.40;;
80384;SDS011;69702;44.618;33.604;2023-07-29T02:03:46;10.13;;;7.95;;
80384;SDS011;69702;44.618;33.604;2023-07-29T02:06:14;12.70;;;8.50;;
80384;SDS011;69702;44.618;33.604;2023-07-29T02:08:40;15.10;;;7.88;;
80384;SDS011;69702;44.618;33.604;2023-07-29T02:11:06;13.52;;;7.60;;
80384;SDS011;69702;44.618;33.604;2023-07-29T02:13:32;11.88;;;7.95;;
80384;SDS011;69702;44.618;33.604;2023-07-29T02:15:59;11.15;;;7.40;;
80384;SDS011;69702;44.618;33.604;2023-07-29T02:18:25;14.47;;;8.00;;
80384;SDS011;69702;44.618;33.604;2023-07-29T02:20:51;12.70;;;7.82;;
80384;SDS011;69702;44.618;33.604;2023-07-29T02:23:17;10.82;;;7.75;;
80384;SDS011;69702;44.618;33.604;2023-07-29T02:25:43;11.48;;;7.95;;
80384;SDS011;69702;44.618;33.604;2023-07-29T02:28:09;10.10;;;7.18;;
80384;SDS011;69702;44.618;33.604;2023-07-29T02:30:36;12.65;;;7.90;;
80384;SDS011;69702;44.618;33.604;2023-07-29T02:33:02;11.75;;;7.28;;
80384;SDS011;69702;44.618;33.604;2023-07-29T02:35:28;10.43;;;7.07;;
80384;SDS011;69702;44.618;33.604;2023-07-29T02:37:54;11.25;;;7.72;;
80384;SDS011;69702;44.618;33.604;2023-07-29T02:40:21;11.80;;;7.60;;
80384;SDS011;69702;44.618;33.604;2023-07-29T02:42:48;13.60;;;7.55;;
80384;SDS011;69702;44.618;33.604;2023-07-29T02:45:14;11.43;;;7.53;;
80384;SDS011;69702;44.618;33.604;2023-07-29T02:47:40;11.32;;;7.40;;
80384;SDS011;69702;44.618;33.604;2023-07-29T02:50:06;13.40;;;7.80;;
80384;SDS011;69702;44.618;33.604;2023-07-29T02:52:32;13.25;;;7.85;;
80384;SDS011;69702;44.618;33.604;2023-07-29T02:54:58;12.30;;;8.00;;
80384;SDS011;69702;44.618;33.604;2023-07-29T02:57:24;11.07;;;7.53;;
80384;SDS011;69702;44.618;33.604;2023-07-29T02:59:50;13.20;;;7.82;;
80384;SDS011;69702;44.618;33.604;2023-07-29T03:02:16;13.00;;;7.63;;
80384;SDS011;69702;44.618;33.604;2023-07-29T03:04:42;11.88;;;7.57;;
80384;SDS011;69702;44.618;33.604;2023-07-29T03:07:08;13.20;;;8.52;;
80384;SDS011;69702;44.618;33.604;2023-07-29T03:09:36;11.77;;;7.70;;
80384;SDS011;69702;44.618;33.604;2023-07-29T03:12:02;12.30;;;8.45;;
80384;SDS011;69702;44.618;33.604;2023-07-29T03:14:29;11.10;;;7.95;;
80384;SDS011;69702;44.618;33.604;2023-07-29T03:16:55;10.98;;;7.32;;
80384;SDS011;69702;44.618;33.604;2023-07-29T03:19:21;11.80;;;7.15;;
80384;SDS011;69702;44.618;33.604;2023-07-29T03:21:48;12.57;;;7.60;;
80384;SDS011;69702;44.618;33.604;2023-07-29T03:24:15;10.30;;;7.47;;
80384;SDS011;69702;44.618;33.604;2023-07-29T03:26:41;9.52;;;6.93;;
80384;SDS011;69702;44.618;33.604;2023-07-29T03:29:07;13.77;;;8.40;;
80384;SDS011;69702;44.618;33.604;2023-07-29T03:31:33;11.32;;;7.28;;
80384;SDS011;69702;44.618;33.604;2023-07-29T03:33:59;11.23;;;7.30;;
80384;SDS011;69702;44.618;33.604;2023-07-29T03:36:45;13.05;;;7.07;;
80384;SDS011;69702;44.618;33.604;2023-07-29T03:39:13;11.63;;;7.88;;
80384;SDS011;69702;44.618;33.604;2023-07-29T03:41:40;10.15;;;6.47;;
80384;SDS011;69702;44.618;33.604;2023-07-29T03:44:06;9.38;;;6.57;;
80384;SDS011;69702;44.618;33.604;2023-07-29T03:46:31;9.38;;;6.75;;
80384;SDS011;69702;44.618;33.604;2023-07-29T03:48:57;10.80;;;6.28;;
80384;SDS011;69702;44.618;33.604;2023-07-29T03:51:23;10.73;;;6.50;;
80384;SDS011;69702;44.618;33.604;2023-07-29T03:53:50;11.38;;;6.45;;
80384;SDS011;69702;44.618;33.604;2023-07-29T03:56:16;11.27;;;6.40;;
80384;SDS011;69702;44.618;33.604;2023-07-29T03:58:42;9.30;;;5.90;;
80384;SDS011;69702;44.618;33.604;2023-07-29T04:01:09;11.75;;;6.57;;
80384;SDS011;69702;44.618;33.604;2023-07-29T04:03:35;8.77;;;6.30;;
80384;SDS011;69702;44.618;33.604;2023-07-29T04:06:02;12.17;;;6.57;;
80384;SDS011;69702;44.618;33.604;2023-07-29T04:08:29;11.27;;;6.40;;
80384;SDS011;69702;44.618;33.604;2023-07-29T04:10:55;11.40;;;6.30;;
80384;SDS011;69702;44.618;33.604;2023-07-29T04:13:21;10.52;;;6.70;;
80384;SDS011;69702;44.618;33.604;2023-07-29T04:15:47;10.75;;;6.28;;
80384;SDS011;69702;44.618;33.604;2023-07-29T04:18:13;9.07;;;6.10;;
80384;SDS011;69702;44.618;33.604;2023-07-29T04:20:40;9.82;;;6.05;;
80384;SDS011;69702;44.618;33.604;2023-07-29T04:23:06;10.13;;;6.88;;
80384;SDS011;69702;44.618;33.604;2023-07-29T04:25:32;11.75;;;6.50;;
80384;SDS011;69702;44.618;33.604;2023-07-29T04:27:58;11.90;;;6.23;;
80384;SDS011;69702;44.618;33.604;2023-07-29T04:30:24;9.07;;;6.28;;
80384;SDS011;69702;44.618;33.604;2023-07-29T04:32:50;10.07;;;6.80;;
80384;SDS011;69702;44.618;33.604;2023-07-29T04:35:16;10.50;;;6.57;;
80384;SDS011;69702;44.618;33.604;2023-07-29T04:37:42;12.30;;;6.78;;
80384;SDS011;69702;44.618;33.604;2023-07-29T04:40:09;10.27;;;6.87;;
80384;SDS011;69702;44.618;33.604;2023-07-29T04:42:36;9.70;;;6.15;;
80384;SDS011;69702;44.618;33.604;2023-07-29T04:45:03;10.90;;;5.97;;
80384;SDS011;69702;44.618;33.604;2023-07-29T04:47:31;9.63;;;5.63;;
80384;SDS011;69702;44.618;33.604;2023-07-29T04:49:57;10.52;;;5.75;;
80384;SDS011;69702;44.618;33.604;2023-07-29T04:52:24;9.50;;;6.47;;
80384;SDS011;69702;44.618;33.604;2023-07-29T04:54:50;11.90;;;5.80;;
80384;SDS011;69702;44.618;33.604;2023-07-29T04:57:16;10.00;;;5.78;;
80384;SDS011;69702;44.618;33.604;2023-07-29T04:59:42;13.50;;;6.90;;
80384;SDS011;69702;44.618;33.604;2023-07-29T05:02:08;14.38;;;7.78;;
80384;SDS011;69702;44.618;33.604;2023-07-29T05:04:34;9.00;;;5.80;;
80384;SDS011;69702;44.618;33.604;2023-07-29T05:07:00;9.20;;;6.38;;
80384;SDS011;69702;44.618;33.604;2023-07-29T05:09:26;13.15;;;8.75;;
80384;SDS011;69702;44.618;33.604;2023-07-29T05:11:52;9.35;;;6.07;;
80384;SDS011;69702;44.618;33.604;2023-07-29T05:14:18;10.53;;;5.90;;
80384;SDS011;69702;44.618;33.604;2023-07-29T05:16:45;11.23;;;6.22;;
80384;SDS011;69702;44.618;33.604;2023-07-29T05:19:11;10.63;;;7.15;;
80384;SDS011;69702;44.618;33.604;2023-07-29T05:21:38;11.18;;;6.20;;
80384;SDS011;69702;44.618;33.604;2023-07-29T05:24:04;9.73;;;6.07;;
80384;SDS011;69702;44.618;33.604;2023-07-29T05:26:31;11.47;;;6.17;;
80384;SDS011;69702;44.618;33.604;2023-07-29T05:28:57;15.23;;;6.80;;
80384;SDS011;69702;44.618;33.604;2023-07-29T05:31:23;13.52;;;6.80;;
80384;SDS011;69702;44.618;33.604;2023-07-29T05:33:49;12.15;;;6.90;;
80384;SDS011;69702;44.618;33.604;2023-07-29T05:36:15;11.48;;;6.50;;
80384;SDS011;69702;44.618;33.604;2023-07-29T05:38:41;13.80;;;7.23;;
80384;SDS011;69702;44.618;33.604;2023-07-29T05:41:07;12.82;;;6.00;;
80384;SDS011;69702;44.618;33.604;2023-07-29T05:43:33;13.02;;;6.88;;
80384;SDS011;69702;44.618;33.604;2023-07-29T05:46:00;13.52;;;6.55;;
80384;SDS011;69702;44.618;33.604;2023-07-29T05:48:27;11.35;;;6.70;;
80384;SDS011;69702;44.618;33.604;2023-07-29T05:50:53;10.07;;;6.77;;
80384;SDS011;69702;44.618;33.604;2023-07-29T05:53:19;11.00;;;5.68;;
80384;SDS011;69702;44.618;33.604;2023-07-29T05:55:45;8.85;;;5.40;;
80384;SDS011;69702;44.618;33.604;2023-07-29T05:58:11;8.27;;;5.38;;
80384;SDS011;69702;44.618;33.604;2023-07-29T06:00:37;8.57;;;5.43;;
80384;SDS011;69702;44.618;33.604;2023-07-29T06:03:03;9.30;;;5.60;;
80384;SDS011;69702;44.618;33.604;2023-07-29T06:05:29;11.95;;;6.07;;
80384;SDS011;69702;44.618;33.604;2023-07-29T06:07:55;9.90;;;5.70;;
80384;SDS011;69702;44.618;33.604;2023-07-29T06:10:21;9.73;;;4.93;;
80384;SDS011;69702;44.618;33.604;2023-07-29T06:12:47;8.75;;;4.97;;
80384;SDS011;69702;44.618;33.604;2023-07-29T06:15:14;11.53;;;4.30;;
80384;SDS011;69702;44.618;33.604;2023-07-29T06:17:41;9.77;;;6.05;;
80384;SDS011;69702;44.618;33.604;2023-07-29T06:20:08;8.15;;;4.43;;
80384;SDS011;69702;44.618;33.604;2023-07-29T06:22:34;8.93;;;4.57;;
80384;SDS011;69702;44.618;33.604;2023-07-29T06:25:01;8.32;;;5.47;;
80384;SDS011;69702;44.618;33.604;2023-07-29T06:27:29;8.70;;;4.97;;
80384;SDS011;69702;44.618;33.604;2023-07-29T06:29:55;10.45;;;5.57;;
80384;SDS011;69702;44.618;33.604;2023-07-29T06:32:21;8.80;;;4.55;;
80384;SDS011;69702;44.618;33.604;2023-07-29T06:34:48;6.97;;;4.82;;
80384;SDS011;69702;44.618;33.604;2023-07-29T06:37:14;8.03;;;4.67;;
80384;SDS011;69702;44.618;33.604;2023-07-29T06:39:40;8.98;;;4.95;;
80384;SDS011;69702;44.618;33.604;2023-07-29T06:42:06;13.43;;;5.65;;
80384;SDS011;69702;44.618;33.604;2023-07-29T06:44:32;8.52;;;5.32;;
80384;SDS011;69702;44.618;33.604;2023-07-29T06:46:58;11.50;;;5.20;;
80384;SDS011;69702;44.618;33.604;2023-07-29T06:49:24;8.65;;;5.55;;
80384;SDS011;69702;44.618;33.604;2023-07-29T06:51:50;11.10;;;5.50;;
80384;SDS011;69702;44.618;33.604;2023-07-29T06:54:16;8.90;;;5.80;;
80384;SDS011;69702;44.618;33.604;2023-07-29T06:56:43;10.10;;;6.00;;
80384;SDS011;69702;44.618;33.604;2023-07-29T06:59:09;8.88;;;5.38;;
80384;SDS011;69702;44.618;33.604;2023-07-29T07:01:35;9.60;;;5.72;;
80384;SDS011;69702;44.618;33.604;2023-07-29T07:04:01;9.27;;;5.90;;
80384;SDS011;69702;44.618;33.604;2023-07-29T07:06:27;11.23;;;6.83;;
80384;SDS011;69702;44.618;33.604;2023-07-29T07:08:53;11.45;;;8.32;;
80384;SDS011;69702;44.618;33.604;2023-07-29T07:11:19;10.40;;;6.30;;
80384;SDS011;69702;44.618;33.604;2023-07-29T07:13:45;10.32;;;5.15;;
80384;SDS011;69702;44.618;33.604;2023-07-29T07:16:11;9.80;;;6.15;;
80384;SDS011;69702;44.618;33.604;2023-07-29T07:18:37;9.10;;;5.37;;
80384;SDS011;69702;44.618;33.604;2023-07-29T07:21:03;10.20;;;5.35;;
80384;SDS011;69702;44.618;33.604;2023-07-29T07:23:29;10.25;;;5.88;;
80384;SDS011;69702;44.618;33.604;2023-07-29T07:25:55;19.88;;;15.27;;
80384;SDS011;69702;44.618;33.604;2023-07-29T07:28:21;10.30;;;5.13;;
80384;SDS011;69702;44.618;33.604;2023-07-29T07:30:47;7.63;;;5.20;;
80384;SDS011;69702;44.618;33.604;2023-07-29T07:33:13;8.15;;;5.28;;
80384;SDS011;69702;44.618;33.604;2023-07-29T07:35:39;9.32;;;5.65;;
80384;SDS011;69702;44.618;33.604;2023-07-29T07:38:08;9.50;;;6.45;;
80384;SDS011;69702;44.618;33.604;2023-07-29T07:40:35;11.43;;;7.15;;
80384;SDS011;69702;44.618;33.604;2023-07-29T07:43:02;9.77;;;5.70;;
80384;SDS011;69702;44.618;33.604;2023-07-29T07:45:28;9.63;;;6.63;;
80384;SDS011;69702;44.618;33.604;2023-07-29T07:47:54;7.57;;;4.28;;
80384;SDS011;69702;44.618;33.604;2023-07-29T07:50:20;8.30;;;6.18;;
80384;SDS011;69702;44.618;33.604;2023-07-29T07:52:46;9.30;;;4.50;;
80384;SDS011;69702;44.618;33.604;2023-07-29T07:55:12;8.48;;;4.80;;
80384;SDS011;69702;44.618;33.604;2023-07-29T07:57:38;9.15;;;4.88;;
80384;SDS011;69702;44.618;33.604;2023-07-29T08:00:05;8.68;;;5.07;;
80384;SDS011;69702;44.618;33.604;2023-07-29T08:02:39;12.45;;;7.35;;
80384;SDS011;69702;44.618;33.604;2023-07-29T08:05:05;22.10;;;10.50;;
80384;SDS011;69702;44.618;33.604;2023-07-29T08:07:31;9.55;;;5.32;;
80384;SDS011;69702;44.618;33.604;2023-07-29T08:09:57;16.33;;;12.73;;
80384;SDS011;69702;44.618;33.604;2023-07-29T08:12:23;19.10;;;16.67;;
80384;SDS011;69702;44.618;33.604;2023-07-29T08:14:49;13.27;;;9.95;;
80384;SDS011;69702;44.618;33.604;2023-07-29T08:17:15;17.50;;;13.37;;
80384;SDS011;69702;44.618;33.604;2023-07-29T08:19:41;6.82;;;4.35;;
80384;SDS011;69702;44.618;33.604;2023-07-29T08:22:07;9.95;;;5.82;;
80384;SDS011;69702;44.618;33.604;2023-07-29T08:24:33;9.70;;;6.95;;
80384;SDS011;69702;44.618;33.604;2023-07-29T08:27:00;7.57;;;5.03;;
80384;SDS011;69702;44.618;33.604;2023-07-29T08:29:26;6.55;;;4.78;;
80384;SDS011;69702;44.618;33.604;2023-07-29T08:31:52;8.20;;;4.32;;
80384;SDS011;69702;44.618;33.604;2023-07-29T08:34:18;6.05;;;4.30;;
80384;SDS011;69702;44.618;33.604;2023-07-29T08:36:44;9.02;;;4.93;;
80384;SDS011;69702;44.618;33.604;2023-07-29T08:39:10;9.50;;;4.90;;
80384;SDS011;69702;44.618;33.604;2023-07-29T08:41:38;9.73;;;5.80;;
80384;SDS011;69702;44.618;33.604;2023-07-29T08:44:09;6.40;;;5.05;;
80384;SDS011;69702;44.618;33.604;2023-07-29T08:46:38;8.35;;;6.22;;
80384;SDS011;69702;44.618;33.604;2023-07-29T08:49:05;6.05;;;4.28;;
80384;SDS011;69702;44.618;33.604;2023-07-29T08:51:31;7.63;;;4.87;;
80384;SDS011;69702;44.618;33.604;2023-07-29T08:53:58;11.25;;;5.40;;
80384;SDS011;69702;44.618;33.604;2023-07-29T08:56:24;8.18;;;4.50;;
80384;SDS011;69702;44.618;33.604;2023-07-29T08:58:51;7.50;;;4.68;;
80384;SDS011;69702;44.618;33.604;2023-07-29T09:01:18;13.70;;;11.30;;
80384;SDS011;69702;44.618;33.604;2023-07-29T09:03:44;7.63;;;3.53;;
80384;SDS011;69702;44.618;33.604;2023-07-29T09:06:10;8.02;;;6.50;;
80384;SDS011;69702;44.618;33.604;2023-07-29T09:08:36;6.15;;;3.92;;
80384;SDS011;69702;44.618;33.604;2023-07-29T09:11:02;6.95;;;3.08;;
80384;SDS011;69702;44.618;33.604;2023-07-29T09:13:29;6.88;;;3.28;;
80384;SDS011;69702;44.618;33.604;2023-07-29T09:15:55;6.80;;;3.03;;
80384;SDS011;69702;44.618;33.604;2023-07-29T09:18:26;6.93;;;5.32;;
80384;SDS011;69702;44.618;33.604;2023-07-29T09:20:54;5.95;;;3.40;;
80384;SDS011;69702;44.618;33.604;2023-07-29T09:23:20;6.43;;;3.17;;
80384;SDS011;69702;44.618;33.604;2023-07-29T09:25:46;6.63;;;2.50;;
80384;SDS011;69702;44.618;33.604;2023-07-29T09:28:14;6.30;;;2.50;;
80384;SDS011;69702;44.618;33.604;2023-07-29T09:30:41;7.75;;;4.25;;
80384;SDS011;69702;44.618;33.604;2023-07-29T09:33:09;6.43;;;3.90;;
80384;SDS011;69702;44.618;33.604;2023-07-29T09:35:36;6.85;;;4.57;;
80384;SDS011;69702;44.618;33.604;2023-07-29T09:38:04;8.53;;;4.17;;
80384;SDS011;69702;44.618;33.604;2023-07-29T09:40:34;6.05;;;3.35;;
80384;SDS011;69702;44.618;33.604;2023-07-29T09:43:04;6.22;;;4.03;;
80384;SDS011;69702;44.618;33.604;2023-07-29T09:45:33;5.70;;;2.85;;
80384;SDS011;69702;44.618;33.604;2023-07-29T09:48:00;5.38;;;3.45;;
80384;SDS011;69702;44.618;33.604;2023-07-29T09:50:28;5.45;;;3.28;;
80384;SDS011;69702;44.618;33.604;2023-07-29T09:52:56;6.45;;;3.20;;
80384;SDS011;69702;44.618;33.604;2023-07-29T09:55:24;5.78;;;3.72;;
80384;SDS011;69702;44.618;33.604;2023-07-29T09:57:58;7.15;;;4.53;;
80384;SDS011;69702;44.618;33.604;2023-07-29T10:00:29;9.07;;;5.40;;
80384;SDS011;69702;44.618;33.604;2023-07-29T10:02:57;5.95;;;4.35;;
80384;SDS011;69702;44.618;33.604;2023-07-29T10:05:25;5.82;;;3.28;;
80384;SDS011;69702;44.618;33.604;2023-07-29T10:07:51;6.47;;;4.35;;
80384;SDS011;69702;44.618;33.604;2023-07-29T10:10:18;4.82;;;3.00;;
80384;SDS011;69702;44.618;33.604;2023-07-29T10:12:45;7.10;;;3.80;;
80384;SDS011;69702;44.618;33.604;2023-07-29T10:15:12;7.30;;;3.83;;
80384;SDS011;69702;44.618;33.604;2023-07-29T10:17:38;6.72;;;3.10;;
80384;SDS011;69702;44.618;33.604;2023-07-29T10:20:06;4.82;;;3.00;;
80384;SDS011;69702;44.618;33.604;2023-07-29T10:25:03;7.53;;;4.07;;
80384;SDS011;69702;44.618;33.604;2023-07-29T10:27:34;5.20;;;3.17;;
80384;SDS011;69702;44.618;33.604;2023-07-29T10:30:05;28.50;;;25.92;;
80384;SDS011;69702;44.618;33.604;2023-07-29T10:32:32;8.07;;;5.28;;
80384;SDS011;69702;44.618;33.604;2023-07-29T10:34:58;4.97;;;3.80;;
80384;SDS011;69702;44.618;33.604;2023-07-29T10:37:24;6.05;;;3.90;;
80384;SDS011;69702;44.618;33.604;2023-07-29T10:39:54;9.98;;;4.40;;
80384;SDS011;69702;44.618;33.604;2023-07-29T10:42:21;10.82;;;4.72;;
80384;SDS011;69702;44.618;33.604;2023-07-29T10:44:51;6.50;;;3.70;;
80384;SDS011;69702;44.618;33.604;2023-07-29T10:47:19;6.40;;;4.28;;
80384;SDS011;69702;44.618;33.604;2023-07-29T10:49:48;5.43;;;3.83;;
80384;SDS011;69702;44.618;33.604;2023-07-29T10:52:29;6.45;;;3.30;;
80384;SDS011;69702;44.618;33.604;2023-07-29T10:54:56;11.63;;;4.40;;
80384;SDS011;69702;44.618;33.604;2023-07-29T10:57:35;5.82;;;3.72;;
80384;SDS011;69702;44.618;33.604;2023-07-29T11:00:04;7.25;;;4.38;;
80384;SDS011;69702;44.618;33.604;2023-07-29T11:02:36;4.67;;;3.70;;
80384;SDS011;69702;44.618;33.604;2023-07-29T11:05:08;6.45;;;3.55;;
80384;SDS011;69702;44.618;33.604;2023-07-29T11:07:45;6.15;;;3.30;;
80384;SDS011;69702;44.618;33.604;2023-07-29T11:10:15;5.30;;;3.53;;
80384;SDS011;69702;44.618;33.604;2023-07-29T11:17:43;5.22;;;3.05;;
80384;SDS011;69702;44.618;33.604;2023-07-29T11:20:23;5.68;;;3.10;;
80384;SDS011;69702;44.618;33.604;2023-07-29T11:22:50;4.90;;;3.53;;
80384;SDS011;69702;44.618;33.604;2023-07-29T11:25:18;5.32;;;3.05;;
80384;SDS011;69702;44.618;33.604;2023-07-29T11:27:45;4.83;;;2.83;;
80384;SDS011;69702;44.618;33.604;2023-07-29T11:30:12;6.32;;;4.32;;
80384;SDS011;69702;44.618;33.604;2023-07-29T11:32:39;6.97;;;3.58;;
80384;SDS011;69702;44.618;33.604;2023-07-29T11:35:07;5.47;;;2.95;;
80384;SDS011;69702;44.618;33.604;2023-07-29T11:37:38;7.13;;;4.35;;
80384;SDS011;69702;44.618;33.604;2023-07-29T11:40:05;6.07;;;4.07;;
80384;SDS011;69702;44.618;33.604;2023-07-29T11:42:37;5.07;;;3.35;;
80384;SDS011;69702;44.618;33.604;2023-07-29T11:45:04;4.95;;;3.05;;
80384;SDS011;69702;44.618;33.604;2023-07-29T11:47:35;5.00;;;3.17;;
80384;SDS011;69702;44.618;33.604;2023-07-29T11:50:06;6.03;;;2.80;;
80384;SDS011;69702;44.618;33.604;2023-07-29T11:52:40;4.67;;;2.13;;
80384;SDS011;69702;44.618;33.604;2023-07-29T11:55:08;7.43;;;2.90;;
80384;SDS011;69702;44.618;33.604;2023-07-29T11:57:35;4.80;;;2.50;;
80384;SDS011;69702;44.618;33.604;2023-07-29T12:00:04;5.18;;;2.92;;
80384;SDS011;69702;44.618;33.604;2023-07-29T12:02:39;5.28;;;3.00;;
80384;SDS011;69702;44.618;33.604;2023-07-29T12:05:06;5.90;;;2.50;;
80384;SDS011;69702;44.618;33.604;2023-07-29T12:07:34;5.30;;;2.80;;
80384;SDS011;69702;44.618;33.604;2023-07-29T12:10:01;4.63;;;2.95;;
80384;SDS011;69702;44.618;33.604;2023-07-29T12:12:30;4.70;;;2.78;;
80384;SDS011;69702;44.618;33.604;2023-07-29T12:14:56;5.13;;;2.95;;
80384;SDS011;69702;44.618;33.604;2023-07-29T12:17:22;4.63;;;2.57;;
80384;SDS011;69702;44.618;33.604;2023-07-29T12:19:48;7.13;;;2.72;;
80384;SDS011;69702;44.618;33.604;2023-07-29T12:22:17;4.70;;;2.90;;
80384;SDS011;69702;44.618;33.604;2023-07-29T12:24:44;7.97;;;3.17;;
80384;SDS011;69702;44.618;33.604;2023-07-29T12:27:11;6.78;;;3.50;;
80384;SDS011;69702;44.618;33.604;2023-07-29T12:29:41;7.90;;;3.07;;
80384;SDS011;69702;44.618;33.604;2023-07-29T12:32:11;5.32;;;2.60;;
80384;SDS011;69702;44.618;33.604;2023-07-29T12:34:37;5.53;;;3.20;;
80384;SDS011;69702;44.618;33.604;2023-07-29T12:37:05;6.43;;;3.28;;
80384;SDS011;69702;44.618;33.604;2023-07-29T12:39:33;6.82;;;3.20;;
80384;SDS011;69702;44.618;33.604;2023-07-29T12:42:02;4.60;;;3.00;;
80384;SDS011;69702;44.618;33.604;2023-07-29T12:44:32;7.65;;;3.95;;
80384;SDS011;69702;44.618;33.604;2023-07-29T12:47:04;6.63;;;3.38;;
80384;SDS011;69702;44.618;33.604;2023-07-29T12:49:31;8.05;;;4.00;;
80384;SDS011;69702;44.618;33.604;2023-07-29T12:51:58;6.55;;;3.28;;
80384;SDS011;69702;44.618;33.604;2023-07-29T12:54:25;7.13;;;3.90;;
80384;SDS011;69702;44.618;33.604;2023-07-29T12:56:51;5.70;;;3.80;;
80384;SDS011;69702;44.618;33.604;2023-07-29T12:59:18;6.13;;;3.75;;
80384;SDS011;69702;44.618;33.604;2023-07-29T13:01:44;5.60;;;3.17;;
80384;SDS011;69702;44.618;33.604;2023-07-29T13:04:10;5.15;;;2.90;;
80384;SDS011;69702;44.618;33.604;2023-07-29T13:06:37;6.20;;;3.93;;
80384;SDS011;69702;44.618;33.604;2023-07-29T13:09:03;6.97;;;3.95;;
80384;SDS011;69702;44.618;33.604;2023-07-29T13:11:31;5.72;;;3.17;;
80384;SDS011;69702;44.618;33.604;2023-07-29T13:13:58;5.63;;;3.40;;
80384;SDS011;69702;44.618;33.604;2023-07-29T13:16:27;7.00;;;3.92;;
80384;SDS011;69702;44.618;33.604;2023-07-29T13:18:53;5.93;;;3.23;;
80384;SDS011;69702;44.618;33.604;2023-07-29T13:21:20;6.38;;;3.55;;
80384;SDS011;69702;44.618;33.604;2023-07-29T13:23:46;4.80;;;2.78;;
80384;SDS011;69702;44.618;33.604;2023-07-29T13:26:12;8.32;;;3.53;;
80384;SDS011;69702;44.618;33.604;2023-07-29T13:28:38;6.03;;;3.72;;
80384;SDS011;69702;44.618;33.604;2023-07-29T13:31:03;6.33;;;3.43;;
80384;SDS011;69702;44.618;33.604;2023-07-29T13:33:29;6.07;;;3.60;;
80384;SDS011;69702;44.618;33.604;2023-07-29T13:36:00;4.88;;;2.80;;
80384;SDS011;69702;44.618;33.604;2023-07-29T13:38:29;5.15;;;2.90;;
80384;SDS011;69702;44.618;33.604;2023-07-29T13:40:55;5.73;;;3.43;;
80384;SDS011;69702;44.618;33.604;2023-07-29T13:43:22;8.05;;;4.50;;
80384;SDS011;69702;44.618;33.604;2023-07-29T13:45:48;6.28;;;3.55;;
80384;SDS011;69702;44.618;33.604;2023-07-29T13:48:16;8.10;;;5.22;;
80384;SDS011;69702;44.618;33.604;2023-07-29T13:50:43;6.03;;;3.83;;
80384;SDS011;69702;44.618;33.604;2023-07-29T13:53:10;5.73;;;3.50;;
80384;SDS011;69702;44.618;33.604;2023-07-29T13:55:36;4.82;;;3.03;;
80384;SDS011;69702;44.618;33.604;2023-07-29T13:58:03;5.18;;;2.90;;
80384;SDS011;69702;44.618;33.604;2023-07-29T14:00:29;6.10;;;3.30;;
80384;SDS011;69702;44.618;33.604;2023-07-29T14:02:55;5.82;;;3.60;;
80384;SDS011;69702;44.618;33.604;2023-07-29T14:05:21;5.83;;;3.30;;
80384;SDS011;69702;44.618;33.604;2023-07-29T14:07:47;5.60;;;2.92;;
80384;SDS011;69702;44.618;33.604;2023-07-29T14:10:13;7.22;;;3.72;;
80384;SDS011;69702;44.618;33.604;2023-07-29T14:12:39;6.30;;;3.13;;
80384;SDS011;69702;44.618;33.604;2023-07-29T14:15:06;4.93;;;2.80;;
80384;SDS011;69702;44.618;33.604;2023-07-29T14:17:32;6.43;;;3.70;;
80384;SDS011;69702;44.618;33.604;2023-07-29T14:19:58;7.78;;;3.55;;
80384;SDS011;69702;44.618;33.604;2023-07-29T14:22:24;7.15;;;3.55;;
80384;SDS011;69702;44.618;33.604;2023-07-29T14:24:50;6.13;;;3.83;;
80384;SDS011;69702;44.618;33.604;2023-07-29T14:27:16;11.03;;;3.20;;
80384;SDS011;69702;44.618;33.604;2023-07-29T14:29:42;5.38;;;2.85;;
80384;SDS011;69702;44.618;33.604;2023-07-29T14:32:08;7.15;;;3.30;;
80384;SDS011;69702;44.618;33.604;2023-07-29T14:34:34;6.38;;;3.22;;
80384;SDS011;69702;44.618;33.604;2023-07-29T14:37:00;5.23;;;3.70;;
80384;SDS011;69702;44.618;33.604;2023-07-29T14:39:27;7.15;;;3.08;;
80384;SDS011;69702;44.618;33.604;2023-07-29T14:41:53;6.43;;;3.20;;
80384;SDS011;69702;44.618;33.604;2023-07-29T14:44:18;6.55;;;3.50;;
80384;SDS011;69702;44.618;33.604;2023-07-29T14:46:45;6.35;;;3.30;;